Heroic Leader — C6ZD2 — position and weather

sailwx.info

Track history (hours):
 
Tides and Currents Weather Stations Pressure Air Temp Water Temp Dewpoint Dewpoint Depression Visibility Wind Speed Wind Dir Waves Ship Positions

Heroic Leader

Last reported at 2017-Jan-24 18:33 UTC. Time now 2017-Jan-24 19:11 UTC.
Position N 53°20' E 006°60'.

Length 200 m; draft 9.5 m.

Type: Cargo ship. MMSI: 311052700.

Date/timePositionNaut miles runAvg speedWind from/ knotsBaromVisibWave heightAir tempDewpointWater temp
2017-Jan-24 18:33N 53°20' E 006°60'6 5.8
2017-Jan-24 17:32N 53°20' E 007°10'0 0.0
2017-Jan-24 16:32N 53°20' E 007°10'0 0.0
2017-Jan-24 15:32N 53°20' E 007°10'0 0.0
2017-Jan-24 14:32N 53°20' E 007°10'0 0.0
2017-Jan-24 13:32N 53°20' E 007°10'0 0.0
2017-Jan-24 12:32N 53°20' E 007°10'0 0.0
2017-Jan-24 11:32N 53°20' E 007°10'0 0.0
2017-Jan-24 10:32N 53°20' E 007°10'0 0.0
2017-Jan-24 09:32N 53°20' E 007°10'0 0.0
2017-Jan-24 08:29N 53°20' E 007°10'0 0.0
2017-Jan-24 07:32N 53°20' E 007°10'0 0.0
2017-Jan-24 06:32N 53°20' E 007°10'0 0.0
2017-Jan-24 05:32N 53°20' E 007°10'0 0.0
2017-Jan-24 04:32N 53°20' E 007°10'0 0.0
2017-Jan-24 03:32N 53°20' E 007°10'0 0.0
2017-Jan-24 02:32N 53°20' E 007°10'0 0.0
2017-Jan-24 01:32N 53°20' E 007°10'0 0.0
2017-Jan-24 00:32N 53°20' E 007°10'0 0.0
2017-Jan-23 23:32N 53°20' E 007°10'0 0.0
2017-Jan-23 22:32N 53°20' E 007°10'0 0.0
2017-Jan-23 21:32N 53°20' E 007°10'0 0.0
2017-Jan-23 20:32N 53°20' E 007°10'0 0.0
2017-Jan-23 19:32N 53°20' E 007°10'0 0.0
2017-Jan-23 18:32N 53°20' E 007°10'0 0.0
2017-Jan-23 17:32N 53°20' E 007°10'0 0.0
2017-Jan-23 16:32N 53°20' E 007°10'0 0.0
2017-Jan-23 15:32N 53°20' E 007°10'0 0.0
2017-Jan-23 14:32N 53°20' E 007°10'0 0.0
2017-Jan-23 13:32N 53°20' E 007°10'0 0.0
2017-Jan-23 12:29N 53°20' E 007°10'0 0.0
2017-Jan-23 11:32N 53°20' E 007°10'0 0.0
2017-Jan-23 10:32N 53°20' E 007°10'0 0.0
2017-Jan-23 09:32N 53°20' E 007°10'0 0.0
2017-Jan-23 08:32N 53°20' E 007°10'0 0.0
2017-Jan-23 07:32N 53°20' E 007°10'0 0.0
2017-Jan-23 06:32N 53°20' E 007°10'0 0.0
2017-Jan-23 05:32N 53°20' E 007°10'0 0.0
2017-Jan-23 04:32N 53°20' E 007°10'0 0.0
2017-Jan-23 03:32N 53°20' E 007°10'0 0.0
2017-Jan-23 02:32N 53°20' E 007°10'0 0.0
2017-Jan-23 01:32N 53°20' E 007°10'0 0.0
2017-Jan-23 00:29N 53°20' E 007°10'0 0.0
2017-Jan-22 23:32N 53°20' E 007°10'0 0.0
2017-Jan-22 22:32N 53°20' E 007°10'0 0.0
2017-Jan-22 21:32N 53°20' E 007°10'0 0.0
2017-Jan-22 20:32N 53°20' E 007°10'0 0.0
2017-Jan-22 19:32N 53°20' E 007°10'0 0.0
2017-Jan-22 18:29N 53°20' E 007°10'0 0.0
2017-Jan-22 17:29N 53°20' E 007°10'0 0.0
2017-Jan-22 16:32N 53°20' E 007°10'0 0.0
2017-Jan-22 15:32N 53°20' E 007°10'0 0.0
2017-Jan-22 14:32N 53°20' E 007°10'0 0.0
2017-Jan-22 13:32N 53°20' E 007°10'0 0.0
2017-Jan-22 12:32N 53°20' E 007°10'0 0.0
2017-Jan-22 11:31N 53°20' E 007°10'0 0.0
2017-Jan-22 10:32N 53°20' E 007°10'0 0.0
2017-Jan-22 09:32N 53°20' E 007°10'0 0.0
2017-Jan-22 08:32N 53°20' E 007°10'0 0.0
2017-Jan-22 07:32N 53°20' E 007°10'0 0.0
2017-Jan-22 06:32N 53°20' E 007°10'0 0.0
2017-Jan-22 05:33N 53°20' E 007°10'4 4.1
2017-Jan-22 04:33N 53°19' E 007°03'1110.9
2017-Jan-22 03:33N 53°28' E 006°51'1715.5
2017-Jan-22 02:29N 53°37' E 006°28'910.1
2017-Jan-22 01:33N 53°38' E 006°12'0 0.4
2017-Jan-22 00:33N 53°38' E 006°12'0 0.4
2017-Jan-21 23:34N 53°38' E 006°13'5 4.6
2017-Jan-21 22:34N 53°41' E 006°19'3014.5
2017-Jan-21 20:27N 53°56' E 007°04'2814.2
2017-Jan-21 18:28N 53°52' E 007°51'1313.9
2017-Jan-21 17:33N 53°46' E 008°10'1414.0
2017-Jan-21 16:33N 53°37' E 008°29'4 4.1
2017-Jan-21 15:33N 53°34' E 008°33'0 0.4
2017-Jan-21 14:32N 53°35' E 008°33'0 0.0
2017-Jan-21 13:32N 53°35' E 008°33'0 0.0
2017-Jan-21 12:32N 53°35' E 008°33'0 0.0
2017-Jan-21 11:32N 53°35' E 008°33'0 0.0
2017-Jan-21 10:32N 53°35' E 008°33'0 0.0
2017-Jan-21 09:32N 53°35' E 008°33'0 0.0
2017-Jan-21 08:32N 53°35' E 008°33'0 0.0
2017-Jan-21 07:29N 53°35' E 008°33'0 0.0
2017-Jan-21 06:32N 53°35' E 008°33'0 0.0
2017-Jan-21 05:29N 53°35' E 008°33'0 0.0
2017-Jan-21 04:32N 53°35' E 008°33'0 0.0
2017-Jan-21 03:32N 53°35' E 008°33'0 0.0
2017-Jan-21 02:32N 53°35' E 008°33'0 0.0
2017-Jan-21 01:32N 53°35' E 008°33'0 0.0
2017-Jan-21 00:29N 53°35' E 008°33'0 0.0
2017-Jan-20 23:32N 53°35' E 008°33'0 0.0
2017-Jan-20 22:32N 53°35' E 008°33'0 0.0
2017-Jan-20 21:32N 53°35' E 008°33'0 0.0
2017-Jan-20 20:32N 53°35' E 008°33'0 0.0
2017-Jan-20 19:32N 53°35' E 008°33'0 0.0
2017-Jan-20 18:32N 53°35' E 008°33'0 0.0
2017-Jan-20 17:32N 53°35' E 008°33'0 0.0
2017-Jan-20 16:32N 53°35' E 008°33'0 0.0
2017-Jan-20 15:32N 53°35' E 008°33'0 0.0
2017-Jan-20 14:32N 53°35' E 008°33'0 0.0
2017-Jan-20 13:32N 53°35' E 008°33'0 0.0
2017-Jan-20 12:32N 53°35' E 008°33'0 0.0
2017-Jan-20 11:32N 53°35' E 008°33'0 0.0
2017-Jan-20 10:32N 53°35' E 008°33'0 0.0
2017-Jan-20 09:32N 53°35' E 008°33'0 0.0
2017-Jan-20 08:32N 53°35' E 008°33'0 0.0
2017-Jan-20 07:32N 53°35' E 008°33'0 0.0
2017-Jan-20 06:32N 53°35' E 008°33'0 0.0
2017-Jan-20 05:32N 53°35' E 008°33'0 0.0
2017-Jan-20 04:32N 53°35' E 008°33'0 0.1
2017-Jan-20 03:33N 53°34' E 008°33'1 1.4
2017-Jan-20 02:33N 53°35' E 008°31'1413.7
2017-Jan-20 01:33N 53°44' E 008°14'1515.2
2017-Jan-20 00:33N 53°52' E 007°52'8 6.1
2017-Jan-19 23:15N 53°52' E 007°38'1 0.8
2017-Jan-19 22:28N 53°52' E 007°38'1 0.9
2017-Jan-19 21:33N 53°51' E 007°38'1 0.6
2017-Jan-19 20:31N 53°51' E 007°39'1 1.1
2017-Jan-19 19:33N 53°53' E 007°39'1111.1
2017-Jan-19 18:34N 53°52' E 007°21'3314.9
2017-Jan-19 16:19N 53°45' E 006°26'1215.3
2017-Jan-19 15:33N 53°41' E 006°07'1715.6
2017-Jan-19 14:28N 53°36' E 005°40'1415.8
2017-Jan-19 13:33N 53°31' E 005°17'1616.1
2017-Jan-19 12:34N 53°26' E 004°51'1615.7
2017-Jan-19 11:33N 53°13' E 004°35'1616.4
2017-Jan-19 10:33N 52°59' E 004°22'1716.5
2017-Jan-19 09:33N 52°45' E 004°07'1616.4
2017-Jan-19 08:33N 52°33' E 003°49'1616.4
2017-Jan-19 07:33N 52°20' E 003°32'1716.9
2017-Jan-19 06:33N 52°04' E 003°24'1616.5
2017-Jan-19 05:33N 51°48' E 003°17'10 9.7
2017-Jan-19 04:34N 51°38' E 003°21'1313.5
2017-Jan-19 03:33N 51°27' E 003°32'7 6.8
2017-Jan-19 02:33N 51°25' E 003°42'9 9.5
2017-Jan-19 01:33N 51°25' E 003°58'10 9.6
2017-Jan-19 00:33N 51°23' E 004°13'8 7.9
2017-Jan-18 23:33N 51°16' E 004°17'0 0.3
2017-Jan-18 22:33N 51°16' E 004°17'1 1.5
2017-Jan-18 21:33N 51°16' E 004°14'0 0.0
2017-Jan-18 20:33N 51°16' E 004°14'0 0.0
2017-Jan-18 19:33N 51°16' E 004°14'0 0.0
2017-Jan-18 18:33N 51°16' E 004°14'0 0.0
2017-Jan-18 17:33N 51°16' E 004°14'0 0.0
2017-Jan-18 16:33N 51°16' E 004°14'0 0.0
2017-Jan-18 15:33N 51°16' E 004°14'0 0.0
2017-Jan-18 14:33N 51°16' E 004°14'0 0.0
2017-Jan-18 13:33N 51°16' E 004°14'0 0.0
2017-Jan-18 12:33N 51°16' E 004°14'0 0.0
2017-Jan-18 11:33N 51°16' E 004°14'0 0.0
2017-Jan-18 10:33N 51°16' E 004°14'1 0.8
2017-Jan-18 09:34N 51°17' E 004°15'1 1.0
2017-Jan-18 08:33N 51°18' E 004°16'7 6.5
2017-Jan-18 07:33N 51°23' E 004°09'8 8.5
2017-Jan-18 06:34N 51°22' E 003°56'1111.4
2017-Jan-18 05:33N 51°26' E 003°38'1211.6
2017-Jan-18 04:33N 51°24' E 003°20'1514.8
2017-Jan-18 03:33N 51°23' E 002°57'8 8.4
2017-Jan-18 02:33N 51°22' E 002°43'1212.4
2017-Jan-18 01:33N 51°25' E 003°03'8 7.9
2017-Jan-18 00:33N 51°20' E 003°13'0 0.0
2017-Jan-17 23:33N 51°20' E 003°13'2 1.8
2017-Jan-17 22:32N 51°18' E 003°14'0 0.0
2017-Jan-17 21:32N 51°18' E 003°14'0 0.0
2017-Jan-17 20:32N 51°18' E 003°14'0 0.0
2017-Jan-17 19:32N 51°18' E 003°14'0 0.0
2017-Jan-17 18:32N 51°18' E 003°14'0 0.0
2017-Jan-17 17:32N 51°18' E 003°14'0 0.0
2017-Jan-17 16:32N 51°18' E 003°14'0 0.0
2017-Jan-17 15:32N 51°18' E 003°14'0 0.0
2017-Jan-17 14:32N 51°18' E 003°14'0 0.5
2017-Jan-17 13:32N 51°19' E 003°13'0 0.0
2017-Jan-17 12:32N 51°19' E 003°13'0 0.0
2017-Jan-17 11:32N 51°19' E 003°13'0 0.0
2017-Jan-17 10:32N 51°19' E 003°13'0 0.0
2017-Jan-17 09:32N 51°19' E 003°13'0 0.0
2017-Jan-17 08:32N 51°19' E 003°13'0 0.0
2017-Jan-17 07:32N 51°19' E 003°13'0 0.0
2017-Jan-17 06:32N 51°19' E 003°13'0 0.0
2017-Jan-17 05:32N 51°19' E 003°13'0 0.0
2017-Jan-17 04:32N 51°19' E 003°13'0 0.0
2017-Jan-17 03:32N 51°19' E 003°13'0 0.0
2017-Jan-17 02:32N 51°19' E 003°13'0 0.0
2017-Jan-17 01:32N 51°19' E 003°13'0 0.0
2017-Jan-17 00:32N 51°19' E 003°13'0 0.0
2017-Jan-16 23:32N 51°19' E 003°13'0 0.0
2017-Jan-16 22:32N 51°19' E 003°13'0 0.0
2017-Jan-16 21:32N 51°19' E 003°13'0 0.0
2017-Jan-16 20:32N 51°19' E 003°13'0 0.0
2017-Jan-16 19:32N 51°19' E 003°13'0 0.0
2017-Jan-16 18:32N 51°19' E 003°13'0 0.0
2017-Jan-16 17:32N 51°19' E 003°13'0 0.0
2017-Jan-16 16:32N 51°19' E 003°13'0 0.0
2017-Jan-16 15:32N 51°19' E 003°13'0 0.0
2017-Jan-16 14:32N 51°19' E 003°13'0 0.0
2017-Jan-16 13:32N 51°19' E 003°13'0 0.0
2017-Jan-16 12:32N 51°19' E 003°13'0 0.0
2017-Jan-16 11:32N 51°19' E 003°13'0 0.0
2017-Jan-16 10:32N 51°19' E 003°13'0 0.0
2017-Jan-16 09:32N 51°19' E 003°13'0 0.0
2017-Jan-16 08:32N 51°19' E 003°13'0 0.0
2017-Jan-16 07:32N 51°19' E 003°13'1 1.3
2017-Jan-16 06:33N 51°20' E 003°13'0 0.5
2017-Jan-16 05:33N 51°20' E 003°13'1010.3
2017-Jan-16 04:33N 51°22' E 002°57'1413.5
2017-Jan-16 03:33N 51°22' E 002°35'1514.6
2017-Jan-16 02:34N 51°17' E 002°13'1616.2
2017-Jan-16 01:33N 51°09' E 001°50'1616.4
2017-Jan-16 00:33N 50°58' E 001°31'7114.2
2017-Jan-15 19:31N 50°17' W 000°01'1414.5
2017-Jan-15 18:33N 50°12' W 000°21'1413.7
2017-Jan-15 17:33N 50°06' W 000°40'1313.0
2017-Jan-15 16:33N 50°00' W 000°58'1212.3
2017-Jan-15 15:33N 49°54' W 001°15'1211.8
2017-Jan-15 14:34N 49°49' W 001°31'7 7.1
2017-Jan-15 13:33N 49°47' W 001°42'1110.7
2017-Jan-15 12:33N 49°51' W 001°56'12815.6
2017-Jan-15 04:20N 49°00' W 004°57'1316.4
2017-Jan-15 03:33N 48°55' W 005°15'1615.8
2017-Jan-15 02:34N 48°46' W 005°34'  
Track history (hours):
 
Tides and Currents Weather Stations Pressure Air Temp Water Temp Dewpoint Dewpoint Depression Visibility Wind Speed Wind Dir Waves Ship Positions

Heroic Leader

Last reported at 2017-Jan-24 18:33 UTC. Time now 2017-Jan-24 19:11 UTC.
Position N 53°20' E 006°60'.

Length 200 m; draft 9.5 m.

Type: Cargo ship. MMSI: 311052700.

Date/timePositionNaut miles runAvg speedWind from/ knotsBaromVisibWave heightAir tempDewpointWater temp
2017-Jan-24 18:33N 53°20' E 006°60'6 5.8
2017-Jan-24 17:32N 53°20' E 007°10'0 0.0
2017-Jan-24 16:32N 53°20' E 007°10'0 0.0
2017-Jan-24 15:32N 53°20' E 007°10'0 0.0
2017-Jan-24 14:32N 53°20' E 007°10'0 0.0
2017-Jan-24 13:32N 53°20' E 007°10'0 0.0
2017-Jan-24 12:32N 53°20' E 007°10'0 0.0
2017-Jan-24 11:32N 53°20' E 007°10'0 0.0
2017-Jan-24 10:32N 53°20' E 007°10'0 0.0
2017-Jan-24 09:32N 53°20' E 007°10'0 0.0
2017-Jan-24 08:29N 53°20' E 007°10'0 0.0
2017-Jan-24 07:32N 53°20' E 007°10'0 0.0
2017-Jan-24 06:32N 53°20' E 007°10'0 0.0
2017-Jan-24 05:32N 53°20' E 007°10'0 0.0
2017-Jan-24 04:32N 53°20' E 007°10'0 0.0
2017-Jan-24 03:32N 53°20' E 007°10'0 0.0
2017-Jan-24 02:32N 53°20' E 007°10'0 0.0
2017-Jan-24 01:32N 53°20' E 007°10'0 0.0
2017-Jan-24 00:32N 53°20' E 007°10'0 0.0
2017-Jan-23 23:32N 53°20' E 007°10'0 0.0
2017-Jan-23 22:32N 53°20' E 007°10'0 0.0
2017-Jan-23 21:32N 53°20' E 007°10'0 0.0
2017-Jan-23 20:32N 53°20' E 007°10'0 0.0
2017-Jan-23 19:32N 53°20' E 007°10'0 0.0
2017-Jan-23 18:32N 53°20' E 007°10'0 0.0
2017-Jan-23 17:32N 53°20' E 007°10'0 0.0
2017-Jan-23 16:32N 53°20' E 007°10'0 0.0
2017-Jan-23 15:32N 53°20' E 007°10'0 0.0
2017-Jan-23 14:32N 53°20' E 007°10'0 0.0
2017-Jan-23 13:32N 53°20' E 007°10'0 0.0
2017-Jan-23 12:29N 53°20' E 007°10'0 0.0
2017-Jan-23 11:32N 53°20' E 007°10'0 0.0
2017-Jan-23 10:32N 53°20' E 007°10'0 0.0
2017-Jan-23 09:32N 53°20' E 007°10'0 0.0
2017-Jan-23 08:32N 53°20' E 007°10'0 0.0
2017-Jan-23 07:32N 53°20' E 007°10'0 0.0
2017-Jan-23 06:32N 53°20' E 007°10'0 0.0
2017-Jan-23 05:32N 53°20' E 007°10'0 0.0
2017-Jan-23 04:32N 53°20' E 007°10'0 0.0
2017-Jan-23 03:32N 53°20' E 007°10'0 0.0
2017-Jan-23 02:32N 53°20' E 007°10'0 0.0
2017-Jan-23 01:32N 53°20' E 007°10'0 0.0
2017-Jan-23 00:29N 53°20' E 007°10'0 0.0
2017-Jan-22 23:32N 53°20' E 007°10'0 0.0
2017-Jan-22 22:32N 53°20' E 007°10'0 0.0
2017-Jan-22 21:32N 53°20' E 007°10'0 0.0
2017-Jan-22 20:32N 53°20' E 007°10'0 0.0
2017-Jan-22 19:32N 53°20' E 007°10'0 0.0
2017-Jan-22 18:29N 53°20' E 007°10'0 0.0
2017-Jan-22 17:29N 53°20' E 007°10'0 0.0
2017-Jan-22 16:32N 53°20' E 007°10'0 0.0
2017-Jan-22 15:32N 53°20' E 007°10'0 0.0
2017-Jan-22 14:32N 53°20' E 007°10'0 0.0
2017-Jan-22 13:32N 53°20' E 007°10'0 0.0
2017-Jan-22 12:32N 53°20' E 007°10'0 0.0
2017-Jan-22 11:31N 53°20' E 007°10'0 0.0
2017-Jan-22 10:32N 53°20' E 007°10'0 0.0
2017-Jan-22 09:32N 53°20' E 007°10'0 0.0
2017-Jan-22 08:32N 53°20' E 007°10'0 0.0
2017-Jan-22 07:32N 53°20' E 007°10'0 0.0
2017-Jan-22 06:32N 53°20' E 007°10'0 0.0
2017-Jan-22 05:33N 53°20' E 007°10'4 4.1
2017-Jan-22 04:33N 53°19' E 007°03'1110.9
2017-Jan-22 03:33N 53°28' E 006°51'1715.5
2017-Jan-22 02:29N 53°37' E 006°28'910.1
2017-Jan-22 01:33N 53°38' E 006°12'0 0.4
2017-Jan-22 00:33N 53°38' E 006°12'0 0.4
2017-Jan-21 23:34N 53°38' E 006°13'5 4.6
2017-Jan-21 22:34N 53°41' E 006°19'3014.5
2017-Jan-21 20:27N 53°56' E 007°04'2814.2
2017-Jan-21 18:28N 53°52' E 007°51'1313.9
2017-Jan-21 17:33N 53°46' E 008°10'1414.0
2017-Jan-21 16:33N 53°37' E 008°29'4 4.1
2017-Jan-21 15:33N 53°34' E 008°33'0 0.4
2017-Jan-21 14:32N 53°35' E 008°33'0 0.0
2017-Jan-21 13:32N 53°35' E 008°33'0 0.0
2017-Jan-21 12:32N 53°35' E 008°33'0 0.0
2017-Jan-21 11:32N 53°35' E 008°33'0 0.0
2017-Jan-21 10:32N 53°35' E 008°33'0 0.0
2017-Jan-21 09:32N 53°35' E 008°33'0 0.0
2017-Jan-21 08:32N 53°35' E 008°33'0 0.0
2017-Jan-21 07:29N 53°35' E 008°33'0 0.0
2017-Jan-21 06:32N 53°35' E 008°33'0 0.0
2017-Jan-21 05:29N 53°35' E 008°33'0 0.0
2017-Jan-21 04:32N 53°35' E 008°33'0 0.0
2017-Jan-21 03:32N 53°35' E 008°33'0 0.0
2017-Jan-21 02:32N 53°35' E 008°33'0 0.0
2017-Jan-21 01:32N 53°35' E 008°33'0 0.0
2017-Jan-21 00:29N 53°35' E 008°33'0 0.0
2017-Jan-20 23:32N 53°35' E 008°33'0 0.0
2017-Jan-20 22:32N 53°35' E 008°33'0 0.0
2017-Jan-20 21:32N 53°35' E 008°33'0 0.0
2017-Jan-20 20:32N 53°35' E 008°33'0 0.0
2017-Jan-20 19:32N 53°35' E 008°33'0 0.0
2017-Jan-20 18:32N 53°35' E 008°33'0 0.0
2017-Jan-20 17:32N 53°35' E 008°33'0 0.0
2017-Jan-20 16:32N 53°35' E 008°33'0 0.0
2017-Jan-20 15:32N 53°35' E 008°33'0 0.0
2017-Jan-20 14:32N 53°35' E 008°33'0 0.0
2017-Jan-20 13:32N 53°35' E 008°33'0 0.0
2017-Jan-20 12:32N 53°35' E 008°33'0 0.0
2017-Jan-20 11:32N 53°35' E 008°33'0 0.0
2017-Jan-20 10:32N 53°35' E 008°33'0 0.0
2017-Jan-20 09:32N 53°35' E 008°33'0 0.0
2017-Jan-20 08:32N 53°35' E 008°33'0 0.0
2017-Jan-20 07:32N 53°35' E 008°33'0 0.0
2017-Jan-20 06:32N 53°35' E 008°33'0 0.0
2017-Jan-20 05:32N 53°35' E 008°33'0 0.0
2017-Jan-20 04:32N 53°35' E 008°33'0 0.1
2017-Jan-20 03:33N 53°34' E 008°33'1 1.4
2017-Jan-20 02:33N 53°35' E 008°31'1413.7
2017-Jan-20 01:33N 53°44' E 008°14'1515.2
2017-Jan-20 00:33N 53°52' E 007°52'8 6.1
2017-Jan-19 23:15N 53°52' E 007°38'1 0.8
2017-Jan-19 22:28N 53°52' E 007°38'1 0.9
2017-Jan-19 21:33N 53°51' E 007°38'1 0.6
2017-Jan-19 20:31N 53°51' E 007°39'1 1.1
2017-Jan-19 19:33N 53°53' E 007°39'1111.1
2017-Jan-19 18:34N 53°52' E 007°21'3314.9
2017-Jan-19 16:19N 53°45' E 006°26'1215.3
2017-Jan-19 15:33N 53°41' E 006°07'1715.6
2017-Jan-19 14:28N 53°36' E 005°40'1415.8
2017-Jan-19 13:33N 53°31' E 005°17'1616.1
2017-Jan-19 12:34N 53°26' E 004°51'1615.7
2017-Jan-19 11:33N 53°13' E 004°35'1616.4
2017-Jan-19 10:33N 52°59' E 004°22'1716.5
2017-Jan-19 09:33N 52°45' E 004°07'1616.4
2017-Jan-19 08:33N 52°33' E 003°49'1616.4
2017-Jan-19 07:33N 52°20' E 003°32'1716.9
2017-Jan-19 06:33N 52°04' E 003°24'1616.5
2017-Jan-19 05:33N 51°48' E 003°17'10 9.7
2017-Jan-19 04:34N 51°38' E 003°21'1313.5
2017-Jan-19 03:33N 51°27' E 003°32'7 6.8
2017-Jan-19 02:33N 51°25' E 003°42'9 9.5
2017-Jan-19 01:33N 51°25' E 003°58'10 9.6
2017-Jan-19 00:33N 51°23' E 004°13'8 7.9
2017-Jan-18 23:33N 51°16' E 004°17'0 0.3
2017-Jan-18 22:33N 51°16' E 004°17'1 1.5
2017-Jan-18 21:33N 51°16' E 004°14'0 0.0
2017-Jan-18 20:33N 51°16' E 004°14'0 0.0
2017-Jan-18 19:33N 51°16' E 004°14'0 0.0
2017-Jan-18 18:33N 51°16' E 004°14'0 0.0
2017-Jan-18 17:33N 51°16' E 004°14'0 0.0
2017-Jan-18 16:33N 51°16' E 004°14'0 0.0
2017-Jan-18 15:33N 51°16' E 004°14'0 0.0
2017-Jan-18 14:33N 51°16' E 004°14'0 0.0
2017-Jan-18 13:33N 51°16' E 004°14'0 0.0
2017-Jan-18 12:33N 51°16' E 004°14'0 0.0
2017-Jan-18 11:33N 51°16' E 004°14'0 0.0
2017-Jan-18 10:33N 51°16' E 004°14'1 0.8
2017-Jan-18 09:34N 51°17' E 004°15'1 1.0
2017-Jan-18 08:33N 51°18' E 004°16'7 6.5
2017-Jan-18 07:33N 51°23' E 004°09'8 8.5
2017-Jan-18 06:34N 51°22' E 003°56'1111.4
2017-Jan-18 05:33N 51°26' E 003°38'1211.6
2017-Jan-18 04:33N 51°24' E 003°20'1514.8
2017-Jan-18 03:33N 51°23' E 002°57'8 8.4
2017-Jan-18 02:33N 51°22' E 002°43'1212.4
2017-Jan-18 01:33N 51°25' E 003°03'8 7.9
2017-Jan-18 00:33N 51°20' E 003°13'0 0.0
2017-Jan-17 23:33N 51°20' E 003°13'2 1.8
2017-Jan-17 22:32N 51°18' E 003°14'0 0.0
2017-Jan-17 21:32N 51°18' E 003°14'0 0.0
2017-Jan-17 20:32N 51°18' E 003°14'0 0.0
2017-Jan-17 19:32N 51°18' E 003°14'0 0.0
2017-Jan-17 18:32N 51°18' E 003°14'0 0.0
2017-Jan-17 17:32N 51°18' E 003°14'0 0.0
2017-Jan-17 16:32N 51°18' E 003°14'0 0.0
2017-Jan-17 15:32N 51°18' E 003°14'0 0.0
2017-Jan-17 14:32N 51°18' E 003°14'0 0.5
2017-Jan-17 13:32N 51°19' E 003°13'0 0.0
2017-Jan-17 12:32N 51°19' E 003°13'0 0.0
2017-Jan-17 11:32N 51°19' E 003°13'0 0.0
2017-Jan-17 10:32N 51°19' E 003°13'0 0.0
2017-Jan-17 09:32N 51°19' E 003°13'0 0.0
2017-Jan-17 08:32N 51°19' E 003°13'0 0.0
2017-Jan-17 07:32N 51°19' E 003°13'0 0.0
2017-Jan-17 06:32N 51°19' E 003°13'0 0.0
2017-Jan-17 05:32N 51°19' E 003°13'0 0.0
2017-Jan-17 04:32N 51°19' E 003°13'0 0.0
2017-Jan-17 03:32N 51°19' E 003°13'0 0.0
2017-Jan-17 02:32N 51°19' E 003°13'0 0.0
2017-Jan-17 01:32N 51°19' E 003°13'0 0.0
2017-Jan-17 00:32N 51°19' E 003°13'0 0.0
2017-Jan-16 23:32N 51°19' E 003°13'0 0.0
2017-Jan-16 22:32N 51°19' E 003°13'0 0.0
2017-Jan-16 21:32N 51°19' E 003°13'0 0.0
2017-Jan-16 20:32N 51°19' E 003°13'0 0.0
2017-Jan-16 19:32N 51°19' E 003°13'0 0.0
2017-Jan-16 18:32N 51°19' E 003°13'0 0.0
2017-Jan-16 17:32N 51°19' E 003°13'0 0.0
2017-Jan-16 16:32N 51°19' E 003°13'0 0.0
2017-Jan-16 15:32N 51°19' E 003°13'0 0.0
2017-Jan-16 14:32N 51°19' E 003°13'0 0.0
2017-Jan-16 13:32N 51°19' E 003°13'0 0.0
2017-Jan-16 12:32N 51°19' E 003°13'0 0.0
2017-Jan-16 11:32N 51°19' E 003°13'0 0.0
2017-Jan-16 10:32N 51°19' E 003°13'0 0.0
2017-Jan-16 09:32N 51°19' E 003°13'0 0.0
2017-Jan-16 08:32N 51°19' E 003°13'0 0.0
2017-Jan-16 07:32N 51°19' E 003°13'1 1.3
2017-Jan-16 06:33N 51°20' E 003°13'0 0.5
2017-Jan-16 05:33N 51°20' E 003°13'1010.3
2017-Jan-16 04:33N 51°22' E 002°57'1413.5
2017-Jan-16 03:33N 51°22' E 002°35'1514.6
2017-Jan-16 02:34N 51°17' E 002°13'1616.2
2017-Jan-16 01:33N 51°09' E 001°50'1616.4
2017-Jan-16 00:33N 50°58' E 001°31'7114.2
2017-Jan-15 19:31N 50°17' W 000°01'1414.5
2017-Jan-15 18:33N 50°12' W 000°21'1413.7
2017-Jan-15 17:33N 50°06' W 000°40'1313.0
2017-Jan-15 16:33N 50°00' W 000°58'1212.3
2017-Jan-15 15:33N 49°54' W 001°15'1211.8
2017-Jan-15 14:34N 49°49' W 001°31'7 7.1
2017-Jan-15 13:33N 49°47' W 001°42'1110.7
2017-Jan-15 12:33N 49°51' W 001°56'12815.6
2017-Jan-15 04:20N 49°00' W 004°57'1316.4
2017-Jan-15 03:33N 48°55' W 005°15'1615.8
2017-Jan-15 02:34N 48°46' W 005°34'  

Dump ship's entire track history